La Union, New Mexico
Current Conditions -  °F | °C
As of 5:58 AM on Thursday 27 Nov 2014 (Local Time) from KBIF Reporting Station
Clear Clear  
Wind Chill: 25°   Ceiling: Unl
Heat Index: 31°   Visibility: 10mi
Dew Point: 17°   Wind: 6mph
Humidity: 55%   Direction: 30°NNE
Pressure: 30.39"   Gusts: NA
Location:  32.025°N, 106.63°W
Report Text: KBIF 271258Z AUTO 03005KT 10SM CLR 00/M09 A3039 RMK AO2 SLP280 T10051086 $
Loading
Personal Weather Stations






























Interactive Weather Map New forecast layout! Learn more

10-Day Weather Forecast

Advertisements
Track Severe Weather on mobile